Time;durP1;ratioP1;P1;durP2;ratioP2;P2;SDS_P1;SDS_P2;PMS_P1;PMS_P2;Temp;Humidity;BMP_temperature;BMP_pressure;BME280_temperature;BME280_humidity;BME280_pressure;Samples;Min_cycle;Max_cycle;Signal;HPM_P1;HPM_P2
2024/01/22 00:01:50;;;;;;;0.00;0.00;;;26.90;49.20;;;;;;5033100;28;20200;-44
2024/01/22 00:04:20;;;;;;;0.00;0.00;;;26.90;49.20;;;;;;5033488;28;20196;-44
2024/01/22 00:06:53;;;;;;;0.00;0.00;;;27.00;49.20;;;;;;5033429;28;20387;-43
2024/01/22 00:09:24;;;;;;;0.00;0.00;;;27.00;49.10;;;;;;5032982;28;20267;-46
2024/01/22 00:11:55;;;;;;;0.00;0.00;;;27.00;49.00;;;;;;5032787;28;20211;-44
2024/01/22 00:14:25;;;;;;;0.00;0.00;;;27.10;49.10;;;;;;5033169;28;20664;-43
2024/01/22 00:16:56;;;;;;;0.00;0.00;;;27.10;49.00;;;;;;5033292;28;20602;-43
2024/01/22 00:19:26;;;;;;;0.00;0.00;;;27.10;49.00;;;;;;5033139;28;20204;-43
2024/01/22 00:21:59;;;;;;;0.00;0.00;;;27.10;48.90;;;;;;5033016;28;20226;-42
2024/01/22 00:24:30;;;;;;;0.00;0.00;;;27.20;48.90;;;;;;5033072;28;20196;-43
2024/01/22 00:27:00;;;;;;;0.00;0.00;;;27.20;48.90;;;;;;5032922;28;20706;-43
2024/01/22 00:29:31;;;;;;;0.00;0.00;;;27.30;48.90;;;;;;5032067;28;20596;-42
2024/01/22 00:32:02;;;;;;;0.00;0.00;;;27.30;48.90;;;;;;5033716;28;20235;-43
2024/01/22 00:34:32;;;;;;;0.00;0.00;;;27.30;48.80;;;;;;5032909;28;20189;-42
2024/01/22 00:37:05;;;;;;;0.00;0.00;;;27.30;48.70;;;;;;5032692;28;20203;-43
2024/01/22 00:39:35;;;;;;;0.00;0.00;;;27.30;48.70;;;;;;5032322;28;20204;-43
2024/01/22 00:42:06;;;;;;;0.00;0.00;;;27.40;48.70;;;;;;5032126;28;20220;-42
2024/01/22 00:44:38;;;;;;;0.00;0.00;;;27.40;48.70;;;;;;5032525;28;20193;-43
2024/01/22 00:47:08;;;;;;;0.00;0.00;;;27.40;48.70;;;;;;5032008;28;20200;-45
2024/01/22 00:49:39;;;;;;;0.00;0.00;;;27.40;48.60;;;;;;5031809;28;20292;-42
2024/01/22 00:52:12;;;;;;;0.00;0.00;;;27.40;48.60;;;;;;5032103;28;20212;-42
2024/01/22 00:54:42;;;;;;;0.00;0.00;;;27.50;48.60;;;;;;5031999;28;20200;-43
2024/01/22 00:57:13;;;;;;;0.00;0.00;;;27.50;48.50;;;;;;5031956;28;20207;-42
2024/01/22 00:59:43;;;;;;;0.00;0.00;;;27.50;48.50;;;;;;5031965;28;20204;-42
2024/01/22 01:02:14;;;;;;;0.00;0.00;;;27.50;48.40;;;;;;5031768;28;20216;-42
2024/01/22 01:04:45;;;;;;;0.00;0.00;;;27.60;48.50;;;;;;5032155;28;20644;-43
2024/01/22 01:07:17;;;;;;;0.00;0.00;;;27.60;48.50;;;;;;5032040;28;20199;-42
2024/01/22 01:09:48;;;;;;;0.00;0.00;;;27.60;48.40;;;;;;5032026;28;20691;-42
2024/01/22 01:12:19;;;;;;;0.00;0.00;;;27.70;48.40;;;;;;5031937;28;20242;-44
2024/01/22 01:14:49;;;;;;;0.00;0.00;;;27.70;48.40;;;;;;5032471;28;20198;-43
2024/01/22 01:17:20;;;;;;;0.00;0.00;;;27.70;48.40;;;;;;5032298;28;20196;-43
2024/01/22 01:19:51;;;;;;;0.00;0.00;;;27.80;48.40;;;;;;5031974;28;20204;-42
2024/01/22 01:22:23;;;;;;;0.00;0.00;;;27.80;48.30;;;;;;5031474;28;20223;-43
2024/01/22 01:24:54;;;;;;;0.00;0.00;;;27.80;48.30;;;;;;5031182;28;20200;-42
2024/01/22 01:27:25;;;;;;;0.00;0.00;;;27.90;48.30;;;;;;5031114;28;20192;-42
2024/01/22 01:29:55;;;;;;;0.00;0.00;;;27.90;48.20;;;;;;5032183;28;20715;-42
2024/01/22 01:32:26;;;;;;;0.00;0.00;;;27.90;48.10;;;;;;5031534;28;20730;-42
2024/01/22 01:34:56;;;;;;;0.00;0.00;;;27.90;48.10;;;;;;5031232;28;20222;-43
2024/01/22 01:37:29;;;;;;;0.00;0.00;;;28.00;48.10;;;;;;5030632;28;20200;-43
2024/01/22 01:40:00;;;;;;;0.00;0.00;;;28.00;48.10;;;;;;5031440;28;20200;-42
2024/01/22 01:42:30;;;;;;;0.00;0.00;;;28.10;48.20;;;;;;5031163;28;20219;-42
2024/01/22 01:45:01;;;;;;;0.00;0.00;;;28.10;48.20;;;;;;5031505;28;20198;-42
2024/01/22 01:47:32;;;;;;;0.00;0.00;;;28.10;48.20;;;;;;5031373;28;20683;-43
2024/01/22 01:50:02;;;;;;;0.00;0.00;;;28.10;48.10;;;;;;5030791;28;20223;-43
2024/01/22 01:52:35;;;;;;;0.00;0.00;;;28.20;48.10;;;;;;5030771;28;20212;-44
2024/01/22 01:55:07;;;;;;;0.00;0.00;;;28.20;48.00;;;;;;5031373;28;20207;-42
2024/01/22 01:57:40;;;;;;;0.00;0.00;;;28.20;47.90;;;;;;5031376;28;20731;-43
2024/01/22 02:00:12;;;;;;;0.00;0.00;;;28.30;47.90;;;;;;5031646;28;20204;-43
2024/01/22 02:02:43;;;;;;;0.00;0.00;;;28.30;47.90;;;;;;5031835;28;20223;-43
2024/01/22 02:05:15;;;;;;;0.00;0.00;;;28.30;47.80;;;;;;5031770;28;20204;-43
2024/01/22 02:07:48;;;;;;;0.00;0.00;;;28.30;47.70;;;;;;5030916;28;20262;-43
2024/01/22 02:10:18;;;;;;;0.00;0.00;;;28.40;47.80;;;;;;5031592;28;20224;-44
2024/01/22 02:12:50;;;;;;;0.00;0.00;;;28.40;47.70;;;;;;5031457;28;20274;-43
2024/01/22 02:15:21;;;;;;;0.00;0.00;;;28.40;47.70;;;;;;5030982;28;20207;-43
2024/01/22 02:17:52;;;;;;;0.00;0.00;;;28.50;47.80;;;;;;5031038;28;20204;-44
2024/01/22 02:20:22;;;;;;;0.00;0.00;;;28.50;47.70;;;;;;5031423;28;20656;-43
2024/01/22 02:22:55;;;;;;;0.00;0.00;;;28.60;47.70;;;;;;5031230;28;20239;-45
2024/01/22 02:25:27;;;;;;;0.00;0.00;;;28.60;47.70;;;;;;5030680;28;20199;-43
2024/01/22 02:27:58;;;;;;;0.00;0.00;;;28.60;47.70;;;;;;5030807;28;20675;-43
2024/01/22 02:30:29;;;;;;;0.00;0.00;;;28.70;47.70;;;;;;5031382;28;20243;-43
2024/01/22 02:32:59;;;;;;;0.00;0.00;;;28.70;47.70;;;;;;5030651;28;20223;-44
2024/01/22 02:35:30;;;;;;;0.00;0.00;;;28.70;47.70;;;;;;5030866;28;20197;-45
2024/01/22 02:38:01;;;;;;;0.00;0.00;;;28.70;47.60;;;;;;5031134;28;20196;-43
2024/01/22 02:40:33;;;;;;;0.00;0.00;;;28.80;47.60;;;;;;5031082;28;20282;-44
2024/01/22 02:43:04;;;;;;;0.00;0.00;;;28.80;47.60;;;;;;5030992;28;20266;-43
2024/01/22 02:45:35;;;;;;;0.00;0.00;;;28.90;47.60;;;;;;5030994;28;20667;-43
2024/01/22 02:48:06;;;;;;;0.00;0.00;;;28.90;47.60;;;;;;5030863;28;20200;-43
2024/01/22 02:50:36;;;;;;;0.00;0.00;;;28.90;47.60;;;;;;5030923;28;20235;-43
2024/01/22 02:53:07;;;;;;;0.00;0.00;;;29.00;47.50;;;;;;5032448;28;20224;-42
2024/01/22 02:55:39;;;;;;;0.00;0.00;;;29.00;47.50;;;;;;5034635;28;20207;-43
2024/01/22 02:58:10;;;;;;;0.00;0.00;;;29.10;47.50;;;;;;5032787;28;20193;-43
2024/01/22 03:00:41;;;;;;;0.00;0.00;;;29.10;47.40;;;;;;5034781;28;20243;-44
2024/01/22 03:03:11;;;;;;;0.00;0.00;;;29.10;47.90;;;;;;5034506;28;20606;-47
2024/01/22 03:05:42;;;;;;;0.00;0.00;;;29.20;47.30;;;;;;5034414;28;20628;-48
2024/01/22 03:08:13;;;;;;;0.00;0.00;;;29.20;47.10;;;;;;5033426;28;20282;-45
2024/01/22 03:10:45;;;;;;;0.00;0.00;;;29.20;47.00;;;;;;5033976;28;20718;-43
2024/01/22 03:13:16;;;;;;;0.00;0.00;;;29.30;47.00;;;;;;5034497;28;20690;-43
2024/01/22 03:15:47;;;;;;;0.00;0.00;;;29.30;47.00;;;;;;5034487;28;20569;-43
2024/01/22 03:18:17;;;;;;;0.00;0.00;;;29.30;46.90;;;;;;5034199;28;20204;-44
2024/01/22 03:20:48;;;;;;;0.00;0.00;;;29.40;46.90;;;;;;5034419;28;20204;-44
2024/01/22 03:23:19;;;;;;;0.00;0.00;;;29.40;46.80;;;;;;5033696;28;20223;-44
2024/01/22 03:25:51;;;;;;;0.00;0.00;;;29.50;46.90;;;;;;5034344;28;20205;-45
2024/01/22 03:28:22;;;;;;;0.00;0.00;;;29.50;46.90;;;;;;5034282;28;20204;-48
2024/01/22 03:30:52;;;;;;;0.00;0.00;;;29.50;46.90;;;;;;5034134;28;20235;-43
2024/01/22 03:33:23;;;;;;;0.00;0.00;;;29.60;46.90;;;;;;5033736;28;20224;-44
2024/01/22 03:35:54;;;;;;;0.00;0.00;;;29.60;46.90;;;;;;5033453;28;20200;-48
2024/01/22 03:38:25;;;;;;;0.00;0.00;;;29.60;46.80;;;;;;5033209;28;20203;-47
2024/01/22 03:40:57;;;;;;;0.00;0.00;;;29.60;46.70;;;;;;5032977;28;20196;-44
2024/01/22 03:43:28;;;;;;;0.00;0.00;;;29.70;46.60;;;;;;5033273;28;20212;-43
2024/01/22 03:45:58;;;;;;;0.00;0.00;;;29.70;46.50;;;;;;5033003;28;20193;-43
2024/01/22 03:48:29;;;;;;;0.00;0.00;;;29.80;46.60;;;;;;5033964;28;20246;-44
2024/01/22 03:51:00;;;;;;;0.00;0.00;;;29.80;47.10;;;;;;5034087;28;20311;-43
2024/01/22 03:53:30;;;;;;;0.00;0.00;;;29.80;46.40;;;;;;5033626;28;20212;-43
2024/01/22 03:56:05;;;;;;;0.00;0.00;;;29.90;46.30;;;;;;5033198;28;20200;-43
2024/01/22 03:58:36;;;;;;;0.00;0.00;;;30.00;46.20;;;;;;5033235;28;20191;-43
2024/01/22 04:01:07;;;;;;;0.00;0.00;;;30.00;46.10;;;;;;5033746;28;20219;-43
2024/01/22 04:03:39;;;;;;;0.00;0.00;;;30.10;46.00;;;;;;5033376;28;20227;-44
2024/01/22 04:06:10;;;;;;;0.00;0.00;;;30.10;46.00;;;;;;5033947;28;20200;-44
2024/01/22 04:08:40;;;;;;;0.00;0.00;;;30.20;45.90;;;;;;5033420;28;20203;-43
2024/01/22 04:11:13;;;;;;;0.00;0.00;;;30.20;45.70;;;;;;5033157;28;20228;-43
2024/01/22 04:13:44;;;;;;;0.00;0.00;;;30.30;45.70;;;;;;5033034;28;20230;-42
2024/01/22 04:16:16;;;;;;;0.00;0.00;;;30.30;45.60;;;;;;5033557;28;20200;-43
2024/01/22 04:18:46;;;;;;;0.00;0.00;;;30.30;45.60;;;;;;5033274;28;20212;-44
2024/01/22 04:21:17;;;;;;;0.00;0.00;;;30.40;45.60;;;;;;5033439;28;20203;-42
2024/01/22 04:23:48;;;;;;;0.00;0.00;;;30.40;45.60;;;;;;5033189;28;20215;-43
2024/01/22 04:26:20;;;;;;;0.00;0.00;;;30.40;45.60;;;;;;5032898;28;20199;-43
2024/01/22 04:28:51;;;;;;;0.00;0.00;;;30.50;45.60;;;;;;5032853;28;20670;-43
2024/01/22 04:31:22;;;;;;;0.00;0.00;;;30.50;45.60;;;;;;5033470;28;20232;-42
2024/01/22 04:33:52;;;;;;;0.00;0.00;;;30.50;45.50;;;;;;5033054;28;20212;-43
2024/01/22 04:36:23;;;;;;;0.00;0.00;;;30.50;45.40;;;;;;5032808;28;20196;-43
2024/01/22 04:38:54;;;;;;;0.00;0.00;;;30.60;45.50;;;;;;5032552;28;20652;-43
2024/01/22 04:41:26;;;;;;;0.00;0.00;;;30.60;45.30;;;;;;5032581;28;20203;-43
2024/01/22 04:43:57;;;;;;;0.00;0.00;;;30.60;45.10;;;;;;5032576;28;20216;-44
2024/01/22 04:46:28;;;;;;;0.00;0.00;;;30.60;45.00;;;;;;5032805;28;20200;-42
2024/01/22 04:48:59;;;;;;;0.00;0.00;;;30.70;44.90;;;;;;5032814;28;20679;-43
2024/01/22 04:51:30;;;;;;;0.00;0.00;;;30.70;44.80;;;;;;5032793;28;20323;-43
2024/01/22 04:54:00;;;;;;;0.00;0.00;;;30.80;44.70;;;;;;5032354;28;20215;-43
2024/01/22 04:56:33;;;;;;;0.00;0.00;;;30.80;44.60;;;;;;5032331;28;20207;-43
2024/01/22 04:59:03;;;;;;;0.00;0.00;;;30.80;44.40;;;;;;5032375;28;20200;-43
2024/01/22 05:01:34;;;;;;;0.00;0.00;;;30.80;44.40;;;;;;5032136;28;20200;-44
2024/01/22 05:04:05;;;;;;;0.00;0.00;;;30.80;44.30;;;;;;5030390;28;20200;-43
2024/01/22 05:06:36;;;;;;;0.00;0.00;;;30.90;44.30;;;;;;5032207;28;20288;-43
2024/01/22 05:09:07;;;;;;;0.00;0.00;;;30.90;44.20;;;;;;5031888;28;20206;-43
2024/01/22 05:11:40;;;;;;;0.00;0.00;;;31.00;44.20;;;;;;5031929;28;20259;-44
2024/01/22 05:14:10;;;;;;;0.00;0.00;;;30.90;43.90;;;;;;5031786;28;20191;-43
2024/01/22 05:16:41;;;;;;;0.00;0.00;;;31.00;43.90;;;;;;5030996;28;20231;-43
2024/01/22 05:19:12;;;;;;;0.00;0.00;;;31.00;43.80;;;;;;5031607;28;20203;-43
2024/01/22 05:21:43;;;;;;;0.00;0.00;;;31.10;43.80;;;;;;5031568;28;20209;-44
2024/01/22 05:24:13;;;;;;;0.00;0.00;;;31.10;43.70;;;;;;5031524;28;20200;-43
2024/01/22 05:26:46;;;;;;;0.00;0.00;;;31.10;43.60;;;;;;5031472;28;20338;-43
2024/01/22 05:29:16;;;;;;;0.00;0.00;;;31.10;43.60;;;;;;5031147;28;20675;-43
2024/01/22 05:31:47;;;;;;;0.00;0.00;;;31.20;43.60;;;;;;5032073;28;20230;-43
2024/01/22 05:34:18;;;;;;;0.00;0.00;;;31.20;43.60;;;;;;5031343;28;20188;-45
2024/01/22 05:36:48;;;;;;;0.00;0.00;;;31.20;43.60;;;;;;5030642;28;20184;-42
2024/01/22 05:39:19;;;;;;;0.00;0.00;;;31.20;43.60;;;;;;5026124;28;20648;-46
2024/01/22 05:41:52;;;;;;;0.00;0.00;;;31.30;43.80;;;;;;5012232;28;20196;-45
2024/01/22 05:44:23;;;;;;;0.00;0.00;;;31.30;43.80;;;;;;5011784;28;20201;-45
2024/01/22 05:46:53;;;;;;;0.00;0.00;;;31.30;43.80;;;;;;5012061;28;20197;-43
2024/01/22 05:49:24;;;;;;;0.00;0.00;;;31.30;43.80;;;;;;5027007;28;20206;-44
2024/01/22 05:51:55;;;;;;;0.00;0.00;;;31.30;43.50;;;;;;5031210;28;20270;-43
2024/01/22 05:54:25;;;;;;;0.00;0.00;;;31.30;43.30;;;;;;5031584;28;20196;-43
2024/01/22 05:56:58;;;;;;;0.00;0.00;;;31.40;43.30;;;;;;5031262;28;20203;-43
2024/01/22 05:59:28;;;;;;;0.00;0.00;;;31.30;43.30;;;;;;5031029;28;20667;-44
2024/01/22 06:01:59;;;;;;;0.00;0.00;;;31.40;43.10;;;;;;5031351;28;20587;-44
2024/01/22 06:04:30;;;;;;;0.00;0.00;;;31.40;42.90;;;;;;5030784;28;20226;-44
2024/01/22 06:07:00;;;;;;;0.00;0.00;;;31.40;42.90;;;;;;5031260;28;20192;-46
2024/01/22 06:09:31;;;;;;;0.00;0.00;;;31.40;42.70;;;;;;5031071;28;20558;-43
2024/01/22 06:12:04;;;;;;;0.00;0.00;;;31.50;42.70;;;;;;5031376;28;20232;-43
2024/01/22 06:14:34;;;;;;;0.00;0.00;;;31.50;42.50;;;;;;5031904;28;20547;-47
2024/01/22 06:17:09;;;;;;;0.00;0.00;;;31.40;42.40;;;;;;5031544;28;20199;-45
2024/01/22 06:19:40;;;;;;;0.00;0.00;;;31.40;42.40;;;;;;5030507;28;20210;-44
2024/01/22 06:22:12;;;;;;;0.00;0.00;;;31.50;42.30;;;;;;5031277;28;20219;-43
2024/01/22 06:24:42;;;;;;;0.00;0.00;;;31.50;42.20;;;;;;5030920;28;20287;-45
2024/01/22 06:27:15;;;;;;;0.00;0.00;;;31.50;42.20;;;;;;5030942;28;20204;-46
2024/01/22 06:29:45;;;;;;;0.00;0.00;;;31.50;42.20;;;;;;5034356;28;20671;-44
2024/01/22 06:32:17;;;;;;;0.00;0.00;;;31.50;42.20;;;;;;5034636;28;20691;-43
2024/01/22 06:34:48;;;;;;;0.00;0.00;;;31.50;42.20;;;;;;5034250;28;20238;-43
2024/01/22 06:37:19;;;;;;;0.00;0.00;;;31.50;42.10;;;;;;5035185;28;20282;-43
2024/01/22 06:39:49;;;;;;;0.00;0.00;;;31.50;42.00;;;;;;5034855;28;20206;-42
2024/01/22 06:42:22;;;;;;;0.00;0.00;;;31.50;41.90;;;;;;5034750;28;20223;-43
2024/01/22 06:44:53;;;;;;;0.00;0.00;;;31.60;42.00;;;;;;5034665;28;20199;-42
2024/01/22 06:47:23;;;;;;;0.00;0.00;;;31.60;42.00;;;;;;5034738;28;20203;-43
2024/01/22 06:49:54;;;;;;;0.00;0.00;;;31.60;42.00;;;;;;5034561;28;20196;-42
2024/01/22 06:52:25;;;;;;;0.00;0.00;;;31.50;42.00;;;;;;5035101;28;20274;-43
2024/01/22 06:54:56;;;;;;;0.00;0.00;;;31.50;41.90;;;;;;5034879;28;20222;-42
2024/01/22 06:57:28;;;;;;;0.00;0.00;;;31.60;42.00;;;;;;5034930;28;20195;-43
2024/01/22 07:00:02;;;;;;;0.00;0.00;;;31.50;41.90;;;;;;5033834;28;20648;-42
2024/01/22 07:02:33;;;;;;;0.00;0.00;;;31.50;41.80;;;;;;5034233;28;20223;-43
2024/01/22 07:05:05;;;;;;;0.00;0.00;;;31.60;41.80;;;;;;5033800;28;20200;-43
2024/01/22 07:07:35;;;;;;;0.00;0.00;;;31.50;41.90;;;;;;5034254;28;20238;-43
2024/01/22 07:10:07;;;;;;;0.00;0.00;;;31.50;41.80;;;;;;5034796;28;20207;-42
2024/01/22 07:12:41;;;;;;;0.00;0.00;;;31.50;41.80;;;;;;5034229;28;20583;-42
2024/01/22 07:15:13;;;;;;;0.00;0.00;;;31.60;41.80;;;;;;5034467;28;20200;-42
2024/01/22 07:17:44;;;;;;;0.00;0.00;;;31.60;41.80;;;;;;5034131;28;20231;-44
2024/01/22 07:20:16;;;;;;;0.00;0.00;;;31.60;41.70;;;;;;5033755;28;20203;-44
2024/01/22 07:22:47;;;;;;;0.00;0.00;;;31.50;41.90;;;;;;5034067;28;20255;-43
2024/01/22 07:25:18;;;;;;;0.00;0.00;;;31.60;41.90;;;;;;5033769;28;20695;-43
2024/01/22 07:27:50;;;;;;;0.00;0.00;;;31.60;41.90;;;;;;5033857;28;20206;-43
2024/01/22 07:30:21;;;;;;;0.00;0.00;;;31.60;41.80;;;;;;5033342;28;20241;-42
2024/01/22 07:32:50;;;;;;;0.00;0.00;;;31.60;41.80;;;;;;5033589;28;20220;-43
2024/01/22 07:35:21;;;;;;;0.00;0.00;;;31.60;41.90;;;;;;5033605;28;20216;-44
2024/01/22 07:37:52;;;;;;;0.00;0.00;;;31.60;41.80;;;;;;5033191;28;20199;-58
2024/01/22 07:40:22;;;;;;;0.00;0.00;;;31.60;42.00;;;;;;5033638;28;20676;-43
2024/01/22 07:42:55;;;;;;;0.00;0.00;;;31.60;39.50;;;;;;5033657;28;20238;-43
2024/01/22 07:45:26;;;;;;;0.00;0.00;;;31.50;39.10;;;;;;5033982;28;20200;-42
2024/01/22 07:47:56;;;;;;;0.00;0.00;;;31.40;38.90;;;;;;5028061;28;20206;-42
2024/01/22 07:50:27;;;;;;;0.00;0.00;;;31.30;39.70;;;;;;5029934;28;20207;-42
2024/01/22 07:52:58;;;;;;;0.00;0.00;;;31.30;39.40;;;;;;5029384;28;20220;-42
2024/01/22 07:55:28;;;;;;;0.00;0.00;;;31.20;39.40;;;;;;5030317;28;20204;-42
2024/01/22 07:58:01;;;;;;;0.00;0.00;;;31.20;39.50;;;;;;5029724;28;20219;-44
2024/01/22 08:00:33;;;;;;;0.00;0.00;;;31.10;39.50;;;;;;5029928;28;20204;-42
2024/01/22 08:03:03;;;;;;;0.00;0.00;;;31.20;39.60;;;;;;5028572;28;20834;-44
2024/01/22 08:05:34;;;;;;;0.00;0.00;;;31.10;39.60;;;;;;5028839;28;20655;-42
2024/01/22 08:08:06;;;;;;;0.00;0.00;;;31.10;39.80;;;;;;5028057;28;20443;-43
2024/01/22 08:10:37;;;;;;;0.00;0.00;;;31.10;40.00;;;;;;5029742;28;20232;-43
2024/01/22 08:13:10;;;;;;;0.00;0.00;;;31.10;40.10;;;;;;5030380;28;20246;-42
2024/01/22 08:15:41;;;;;;;0.00;0.00;;;31.10;40.10;;;;;;5029099;28;20199;-42
2024/01/22 08:18:12;;;;;;;0.00;0.00;;;31.10;40.20;;;;;;5028347;28;20294;-42
2024/01/22 08:20:42;;;;;;;0.00;0.00;;;31.10;40.30;;;;;;5028617;28;20207;-43
2024/01/22 08:23:13;;;;;;;0.00;0.00;;;31.10;40.30;;;;;;5029138;28;20570;-43
2024/01/22 08:25:44;;;;;;;0.00;0.00;;;31.10;40.30;;;;;;5028843;28;20207;-42
2024/01/22 08:28:16;;;;;;;0.00;0.00;;;31.00;40.20;;;;;;5029297;28;20199;-42
2024/01/22 08:30:47;;;;;;;0.00;0.00;;;30.90;40.30;;;;;;5028922;28;20235;-41
2024/01/22 08:33:17;;;;;;;0.00;0.00;;;31.00;40.30;;;;;;5029435;28;20231;-42
2024/01/22 08:35:48;;;;;;;0.00;0.00;;;30.90;40.30;;;;;;5028554;28;20270;-42
2024/01/22 08:38:19;;;;;;;0.00;0.00;;;30.90;40.30;;;;;;5028256;28;20203;-42
2024/01/22 08:40:49;;;;;;;0.00;0.00;;;30.90;40.30;;;;;;5029682;28;20200;-44
2024/01/22 08:43:22;;;;;;;0.00;0.00;;;30.90;40.30;;;;;;5011762;28;20302;-43
2024/01/22 08:45:53;;;;;;;0.00;0.00;;;30.90;40.30;;;;;;5028687;28;20258;-43
2024/01/22 08:48:23;;;;;;;0.00;0.00;;;30.90;40.20;;;;;;5028343;28;20668;-44
2024/01/22 08:50:54;;;;;;;0.00;0.00;;;30.80;39.90;;;;;;5027795;28;20200;-42
2024/01/22 08:53:25;;;;;;;0.00;0.00;;;30.80;39.80;;;;;;5029218;28;20227;-43
2024/01/22 08:55:55;;;;;;;0.00;0.00;;;30.80;39.70;;;;;;5028031;28;20203;-42
2024/01/22 08:58:28;;;;;;;0.00;0.00;;;30.80;39.70;;;;;;5028128;28;20211;-42
2024/01/22 09:00:58;;;;;;;0.00;0.00;;;30.80;39.80;;;;;;5028627;28;20203;-42
2024/01/22 09:03:29;;;;;;;0.00;0.00;;;30.80;39.80;;;;;;5028314;28;20215;-42
2024/01/22 09:06:00;;;;;;;0.00;0.00;;;30.70;39.80;;;;;;5027939;28;20214;-45
2024/01/22 09:08:30;;;;;;;0.00;0.00;;;30.60;39.70;;;;;;5029473;28;20200;-45
2024/01/22 09:11:02;;;;;;;0.00;0.00;;;30.60;39.80;;;;;;5032968;28;20200;-43
2024/01/22 09:13:34;;;;;;;0.00;0.00;;;30.60;39.70;;;;;;5029327;28;20611;-45
2024/01/22 09:16:05;;;;;;;0.00;0.00;;;30.50;39.70;;;;;;5026091;28;20683;-42
2024/01/22 09:18:36;;;;;;;0.00;0.00;;;30.50;39.70;;;;;;5026908;28;20211;-41
2024/01/22 09:21:08;;;;;;;0.00;0.00;;;30.50;39.70;;;;;;5027410;28;20199;-47
2024/01/22 09:23:38;;;;;;;0.00;0.00;;;30.50;39.70;;;;;;5027502;28;20221;-43
2024/01/22 09:26:09;;;;;;;0.00;0.00;;;30.40;39.70;;;;;;5027723;28;20247;-44
2024/01/22 09:28:42;;;;;;;0.00;0.00;;;30.40;39.70;;;;;;5026883;28;20650;-43
2024/01/22 09:31:12;;;;;;;0.00;0.00;;;30.40;39.70;;;;;;5027431;28;20230;-41
2024/01/22 09:33:43;;;;;;;0.00;0.00;;;30.40;39.70;;;;;;5039624;23;20235;-50
2024/01/22 09:36:14;;;;;;;0.00;0.00;;;30.40;39.70;;;;;;5028587;28;20196;-48
2024/01/22 09:38:44;;;;;;;0.00;0.00;;;30.40;39.60;;;;;;5025778;28;20196;-48
2024/01/22 09:41:17;;;;;;;0.00;0.00;;;30.30;39.60;;;;;;5027028;28;20769;-51
2024/01/22 09:43:51;;;;;;;0.00;0.00;;;30.30;39.50;;;;;;5027853;28;20231;-49
2024/01/22 09:46:22;;;;;;;0.00;0.00;;;30.30;39.60;;;;;;5027256;28;20948;-51
2024/01/22 09:48:55;;;;;;;0.00;0.00;;;30.20;39.40;;;;;;5027471;28;20211;-53
2024/01/22 09:51:26;;;;;;;0.00;0.00;;;30.20;39.50;;;;;;5028275;28;20713;-48
2024/01/22 09:54:02;;;;;;;0.00;0.00;;;30.20;39.50;;;;;;5027524;28;20602;-46
2024/01/22 09:56:34;;;;;;;0.00;0.00;;;30.10;39.40;;;;;;5027079;28;20223;-47
2024/01/22 09:59:14;;;;;;;0.00;0.00;;;30.10;39.40;;;;;;5027211;28;20690;-48
2024/01/22 10:01:46;;;;;;;0.00;0.00;;;30.10;39.40;;;;;;5027911;28;20667;-47
2024/01/22 10:04:17;;;;;;;0.00;0.00;;;30.10;39.50;;;;;;5027273;28;20235;-48
2024/01/22 10:06:48;;;;;;;0.00;0.00;;;30.00;39.40;;;;;;5028022;28;20196;-46
2024/01/22 10:09:19;;;;;;;0.00;0.00;;;30.00;39.40;;;;;;5027531;28;20212;-47
2024/01/22 10:11:50;;;;;;;0.00;0.00;;;30.00;39.50;;;;;;5027258;28;20242;-48
2024/01/22 10:14:34;;;;;;;0.00;0.00;;;30.00;39.60;;;;;;5027522;28;20204;-45
2024/01/22 10:17:18;;;;;;;0.00;0.00;;;29.90;39.50;;;;;;5007373;28;20319;-46
2024/01/22 10:19:49;;;;;;;0.00;0.00;;;29.90;39.50;;;;;;5026653;28;20204;-47
2024/01/22 10:22:22;;;;;;;0.00;0.00;;;29.90;39.60;;;;;;5028174;28;20224;-45
2024/01/22 10:25:02;;;;;;;0.00;0.00;;;29.80;39.50;;;;;;5027621;28;20199;-46
2024/01/22 10:27:32;;;;;;;0.00;0.00;;;29.80;39.70;;;;;;5026500;28;20575;-47
2024/01/22 10:30:17;;;;;;;0.00;0.00;;;29.80;39.70;;;;;;5026975;28;20200;-44
2024/01/22 10:32:47;;;;;;;0.00;0.00;;;29.80;39.80;;;;;;5027191;28;20232;-48
2024/01/22 10:35:26;;;;;;;0.00;0.00;;;29.80;39.90;;;;;;5027652;28;20211;-46
2024/01/22 10:38:10;;;;;;;0.00;0.00;;;29.70;39.90;;;;;;5027843;28;20209;-45
2024/01/22 10:40:41;;;;;;;0.00;0.00;;;29.70;40.00;;;;;;5027750;28;20208;-49
2024/01/22 10:43:28;;;;;;;0.00;0.00;;;29.70;40.00;;;;;;5027045;28;20231;-48
2024/01/22 10:46:01;;;;;;;0.00;0.00;;;29.70;40.20;;;;;;5026998;28;20330;-47
2024/01/22 10:48:32;;;;;;;0.00;0.00;;;29.70;40.20;;;;;;5026892;28;20208;-49
2024/01/22 10:51:06;;;;;;;0.00;0.00;;;29.70;40.20;;;;;;5027869;28;20573;-46
2024/01/22 10:53:37;;;;;;;0.00;0.00;;;29.70;40.90;;;;;;5026987;28;20228;-44
2024/01/22 10:56:17;;;;;;;0.00;0.00;;;29.60;40.10;;;;;;5027790;28;20200;-48
2024/01/22 10:58:48;;;;;;;0.00;0.00;;;29.60;40.20;;;;;;5026263;28;20738;-47
2024/01/22 11:01:24;;;;;;;0.00;0.00;;;29.60;40.20;;;;;;5027846;28;20203;-45
2024/01/22 11:03:56;;;;;;;0.00;0.00;;;29.60;40.30;;;;;;5026870;28;20232;-46
2024/01/22 11:06:27;;;;;;;0.00;0.00;;;29.50;40.20;;;;;;5027483;28;20200;-46
2024/01/22 11:08:59;;;;;;;0.00;0.00;;;29.50;40.30;;;;;;5026508;28;20675;-45
2024/01/22 11:11:30;;;;;;;0.00;0.00;;;29.50;40.50;;;;;;5027075;28;20203;-47
2024/01/22 11:14:02;;;;;;;0.00;0.00;;;29.50;40.30;;;;;;5028937;28;20227;-45
2024/01/22 11:16:35;;;;;;;0.00;0.00;;;29.50;40.30;;;;;;5034573;28;20200;-44
2024/01/22 11:19:07;;;;;;;0.00;0.00;;;29.50;40.40;;;;;;5034527;28;20200;-45
2024/01/22 11:21:39;;;;;;;0.00;0.00;;;29.40;40.40;;;;;;5033211;28;20291;-45
2024/01/22 11:24:14;;;;;;;0.00;0.00;;;29.40;40.50;;;;;;5033695;28;20708;-45
2024/01/22 11:26:46;;;;;;;0.00;0.00;;;29.40;40.50;;;;;;5032366;28;20191;-45
2024/01/22 11:29:22;;;;;;;0.00;0.00;;;29.40;40.50;;;;;;5031282;28;20236;-47
2024/01/22 11:31:55;;;;;;;0.00;0.00;;;29.30;40.50;;;;;;5032786;28;20192;-45
2024/01/22 11:34:46;;;;;;;0.00;0.00;;;29.30;40.50;;;;;;5042404;22;20229;-45
2024/01/22 11:37:34;;;;;;;0.00;0.00;;;29.30;40.60;;;;;;5017732;28;20259;-43
2024/01/22 11:40:06;;;;;;;0.00;0.00;;;29.30;40.60;;;;;;5022441;28;20193;-45
2024/01/22 11:42:37;;;;;;;0.00;0.00;;;29.30;40.70;;;;;;5020539;28;20216;-44
2024/01/22 11:45:15;;;;;;;0.00;0.00;;;29.20;40.60;;;;;;5023034;28;20199;-45
2024/01/22 11:47:47;;;;;;;0.00;0.00;;;29.20;40.70;;;;;;5020825;28;20184;-44
2024/01/22 11:50:18;;;;;;;0.00;0.00;;;29.20;40.70;;;;;;5014375;28;20193;-45
2024/01/22 11:52:49;;;;;;;0.00;0.00;;;29.20;40.70;;;;;;5013875;28;20268;-44
2024/01/22 11:55:20;;;;;;;0.00;0.00;;;29.20;40.70;;;;;;5013868;28;20715;-44
2024/01/22 11:57:51;;;;;;;0.00;0.00;;;29.20;40.70;;;;;;5013929;28;20208;-46
2024/01/22 12:00:22;;;;;;;0.00;0.00;;;29.20;40.70;;;;;;5013604;28;20205;-43
2024/01/22 12:02:58;;;;;;;0.00;0.00;;;29.10;40.70;;;;;;5013193;28;20324;-43
2024/01/22 12:05:29;;;;;;;0.00;0.00;;;29.10;40.80;;;;;;5013736;28;20196;-44
2024/01/22 12:08:00;;;;;;;0.00;0.00;;;29.10;40.70;;;;;;5013822;28;20201;-43
2024/01/22 12:10:31;;;;;;;0.00;0.00;;;29.00;40.70;;;;;;5013490;28;20576;-44
2024/01/22 12:13:03;;;;;;;0.00;0.00;;;29.00;40.70;;;;;;5013192;28;20228;-43
2024/01/22 12:15:35;;;;;;;0.00;0.00;;;29.00;40.70;;;;;;5013519;28;20193;-44
2024/01/22 12:18:08;;;;;;;0.00;0.00;;;29.00;40.80;;;;;;5013730;28;20713;-46
2024/01/22 12:20:39;;;;;;;0.00;0.00;;;29.00;40.80;;;;;;5013663;28;20208;-44
2024/01/22 12:23:10;;;;;;;0.00;0.00;;;28.90;40.80;;;;;;5013235;28;20227;-44
2024/01/22 12:25:41;;;;;;;0.00;0.00;;;28.90;40.80;;;;;;5013328;28;20592;-47
2024/01/22 12:28:13;;;;;;;0.00;0.00;;;28.90;40.80;;;;;;5013451;28;20193;-44
2024/01/22 12:30:45;;;;;;;0.00;0.00;;;28.90;40.80;;;;;;5013442;28;20555;-45
2024/01/22 12:33:27;;;;;;;0.00;0.00;;;28.80;40.80;;;;;;5013403;28;20237;-46
2024/01/22 12:36:09;;;;;;;0.00;0.00;;;28.80;40.80;;;;;;5013123;28;20192;-44
2024/01/22 12:38:50;;;;;;;0.00;0.00;;;28.80;40.80;;;;;;5012964;28;20200;-43
2024/01/22 12:41:21;;;;;;;0.00;0.00;;;28.80;40.80;;;;;;5013158;28;20320;-43
2024/01/22 12:43:51;;;;;;;0.00;0.00;;;28.80;40.90;;;;;;5012953;28;20213;-49
2024/01/22 12:46:22;;;;;;;0.00;0.00;;;28.80;40.90;;;;;;5012928;28;20200;-44
2024/01/22 12:48:55;;;;;;;0.00;0.00;;;28.80;41.00;;;;;;5013186;28;20544;-45
2024/01/22 12:51:28;;;;;;;0.00;0.00;;;28.70;40.90;;;;;;5012732;28;20201;-44
2024/01/22 12:53:59;;;;;;;0.00;0.00;;;28.70;41.00;;;;;;5009816;28;20233;-46
2024/01/22 12:56:30;;;;;;;0.00;0.00;;;28.70;40.90;;;;;;5012562;28;20732;-46
2024/01/22 12:59:00;;;;;;;0.00;0.00;;;28.70;41.00;;;;;;5012598;28;20201;-45
2024/01/22 13:01:31;;;;;;;0.00;0.00;;;28.70;41.00;;;;;;5012708;28;20204;-46
2024/01/22 13:04:04;;;;;;;0.00;0.00;;;28.60;41.00;;;;;;5012671;28;20217;-46
2024/01/22 13:06:34;;;;;;;0.00;0.00;;;28.60;41.00;;;;;;5012711;28;20201;-46
2024/01/22 13:09:05;;;;;;;0.00;0.00;;;28.60;41.00;;;;;;5012521;28;20208;-45
2024/01/22 13:11:36;;;;;;;0.00;0.00;;;28.50;41.00;;;;;;5011877;28;20189;-46